sensor_id;sensor_type;location;lat;lon;timestamp;pressure;altitude;pressure_sealevel;temperature;humidity
77153;BME280;66124;51.146;17.072;2023-01-19T00:01:06;98785.79;;;2.16;83.73
77153;BME280;66124;51.146;17.072;2023-01-19T00:03:36;98787.23;;;2.17;83.74
77153;BME280;66124;51.146;17.072;2023-01-19T00:06:07;98794.14;;;2.19;83.60
77153;BME280;66124;51.146;17.072;2023-01-19T00:08:36;98789.20;;;2.13;83.50
77153;BME280;66124;51.146;17.072;2023-01-19T00:11:06;98811.39;;;2.23;83.84
77153;BME280;66124;51.146;17.072;2023-01-19T00:13:36;98817.80;;;2.24;83.42
77153;BME280;66124;51.146;17.072;2023-01-19T00:16:07;98818.91;;;2.24;83.53
77153;BME280;66124;51.146;17.072;2023-01-19T00:18:36;98822.20;;;2.24;83.70
77153;BME280;66124;51.146;17.072;2023-01-19T00:21:06;98821.05;;;2.25;83.51
77153;BME280;66124;51.146;17.072;2023-01-19T00:23:35;98824.74;;;2.26;83.53
77153;BME280;66124;51.146;17.072;2023-01-19T00:26:05;98827.58;;;2.27;83.48
77153;BME280;66124;51.146;17.072;2023-01-19T00:28:34;98829.32;;;2.27;83.43
77153;BME280;66124;51.146;17.072;2023-01-19T00:31:04;98838.77;;;2.28;83.45
77153;BME280;66124;51.146;17.072;2023-01-19T00:33:33;98847.73;;;2.27;83.31
77153;BME280;66124;51.146;17.072;2023-01-19T00:36:01;98848.14;;;2.26;83.20
77153;BME280;66124;51.146;17.072;2023-01-19T00:40:56;98849.94;;;2.29;83.35
77153;BME280;66124;51.146;17.072;2023-01-19T00:43:25;98852.44;;;2.28;83.20
77153;BME280;66124;51.146;17.072;2023-01-19T00:45:54;98855.36;;;2.30;83.29
77153;BME280;66124;51.146;17.072;2023-01-19T00:48:24;98857.19;;;2.31;83.26
77153;BME280;66124;51.146;17.072;2023-01-19T00:50:53;98859.60;;;2.32;83.07
77153;BME280;66124;51.146;17.072;2023-01-19T00:53:22;98864.27;;;2.34;83.01
77153;BME280;66124;51.146;17.072;2023-01-19T00:55:52;98863.98;;;2.35;83.03
77153;BME280;66124;51.146;17.072;2023-01-19T00:58:21;98867.89;;;2.36;82.99
77153;BME280;66124;51.146;17.072;2023-01-19T01:00:53;98874.14;;;2.37;82.96
77153;BME280;66124;51.146;17.072;2023-01-19T01:03:21;98878.88;;;2.40;83.00
77153;BME280;66124;51.146;17.072;2023-01-19T01:05:50;98881.71;;;2.38;82.64
77153;BME280;66124;51.146;17.072;2023-01-19T01:08:20;98885.73;;;2.38;82.82
77153;BME280;66124;51.146;17.072;2023-01-19T01:10:49;98885.96;;;2.39;82.66
77153;BME280;66124;51.146;17.072;2023-01-19T01:13:19;98892.27;;;2.40;82.55
77153;BME280;66124;51.146;17.072;2023-01-19T01:15:51;98897.94;;;2.39;82.56
77153;BME280;66124;51.146;17.072;2023-01-19T01:18:21;98904.09;;;2.40;82.39
77153;BME280;66124;51.146;17.072;2023-01-19T01:20:51;98904.38;;;2.39;82.32
77153;BME280;66124;51.146;17.072;2023-01-19T01:23:20;98902.62;;;2.37;82.52
77153;BME280;66124;51.146;17.072;2023-01-19T01:25:50;98897.77;;;2.34;82.57
77153;BME280;66124;51.146;17.072;2023-01-19T01:28:19;98896.75;;;2.30;82.28
77153;BME280;66124;51.146;17.072;2023-01-19T01:30:49;98901.52;;;2.25;82.14
77153;BME280;66124;51.146;17.072;2023-01-19T01:33:19;98903.39;;;2.19;81.85
77153;BME280;66124;51.146;17.072;2023-01-19T01:35:49;98907.61;;;2.09;81.84
77153;BME280;66124;51.146;17.072;2023-01-19T01:38:18;98910.75;;;2.04;81.80
77153;BME280;66124;51.146;17.072;2023-01-19T01:40:47;98916.19;;;1.98;81.80
77153;BME280;66124;51.146;17.072;2023-01-19T01:43:18;98921.30;;;1.94;82.08
77153;BME280;66124;51.146;17.072;2023-01-19T01:45:47;98922.20;;;1.90;81.92
77153;BME280;66124;51.146;17.072;2023-01-19T01:48:19;98924.02;;;1.86;82.09
77153;BME280;66124;51.146;17.072;2023-01-19T01:50:52;98921.32;;;1.81;82.01
77153;BME280;66124;51.146;17.072;2023-01-19T01:53:21;98919.35;;;1.76;81.94
77153;BME280;66124;51.146;17.072;2023-01-19T01:58:32;98924.73;;;1.74;81.92
77153;BME280;66124;51.146;17.072;2023-01-19T02:01:02;98925.42;;;1.71;81.91
77153;BME280;66124;51.146;17.072;2023-01-19T02:03:32;98927.10;;;1.70;82.11
77153;BME280;66124;51.146;17.072;2023-01-19T02:06:04;98923.66;;;1.69;81.98
77153;BME280;66124;51.146;17.072;2023-01-19T02:08:40;98928.14;;;1.70;81.83
77153;BME280;66124;51.146;17.072;2023-01-19T02:11:11;98931.88;;;1.67;82.00
77153;BME280;66124;51.146;17.072;2023-01-19T02:13:42;98934.13;;;1.64;81.74
77153;BME280;66124;51.146;17.072;2023-01-19T02:16:13;98934.48;;;1.62;81.73
77153;BME280;66124;51.146;17.072;2023-01-19T02:18:44;98933.64;;;1.60;81.76
77153;BME280;66124;51.146;17.072;2023-01-19T02:21:19;98930.30;;;1.59;81.54
77153;BME280;66124;51.146;17.072;2023-01-19T02:23:52;98929.42;;;1.59;81.68
77153;BME280;66124;51.146;17.072;2023-01-19T02:26:24;98933.84;;;1.58;81.67
77153;BME280;66124;51.146;17.072;2023-01-19T02:28:57;98932.98;;;1.58;81.67
77153;BME280;66124;51.146;17.072;2023-01-19T02:31:29;98933.25;;;1.57;81.77
77153;BME280;66124;51.146;17.072;2023-01-19T02:34:00;98935.84;;;1.57;81.40
77153;BME280;66124;51.146;17.072;2023-01-19T02:36:34;98940.58;;;1.57;81.45
77153;BME280;66124;51.146;17.072;2023-01-19T02:39:06;98938.85;;;1.55;81.45
77153;BME280;66124;51.146;17.072;2023-01-19T02:41:40;98942.08;;;1.54;81.41
77153;BME280;66124;51.146;17.072;2023-01-19T02:44:12;98946.93;;;1.54;81.38
77153;BME280;66124;51.146;17.072;2023-01-19T02:46:41;98946.63;;;1.52;81.37
77153;BME280;66124;51.146;17.072;2023-01-19T02:49:11;98948.75;;;1.50;81.26
77153;BME280;66124;51.146;17.072;2023-01-19T02:51:42;98937.84;;;1.45;81.25
77153;BME280;66124;51.146;17.072;2023-01-19T02:54:25;98949.80;;;1.51;80.91
77153;BME280;66124;51.146;17.072;2023-01-19T02:57:16;98942.45;;;1.49;81.00
77153;BME280;66124;51.146;17.072;2023-01-19T03:00:00;98939.55;;;1.46;81.09
77153;BME280;66124;51.146;17.072;2023-01-19T03:02:38;98939.30;;;1.45;81.18
77153;BME280;66124;51.146;17.072;2023-01-19T03:05:23;98933.16;;;1.43;80.86
77153;BME280;66124;51.146;17.072;2023-01-19T03:08:02;98933.29;;;1.39;80.99
77153;BME280;66124;51.146;17.072;2023-01-19T03:17:03;98941.92;;;1.43;80.67
77153;BME280;66124;51.146;17.072;2023-01-19T03:19:37;98946.64;;;1.43;80.92
77153;BME280;66124;51.146;17.072;2023-01-19T03:22:10;98944.48;;;1.42;80.75
77153;BME280;66124;51.146;17.072;2023-01-19T03:24:42;98947.48;;;1.42;80.60
77153;BME280;66124;51.146;17.072;2023-01-19T03:27:17;98938.83;;;1.41;80.82
77153;BME280;66124;51.146;17.072;2023-01-19T03:29:51;98933.33;;;1.39;80.68
77153;BME280;66124;51.146;17.072;2023-01-19T03:32:25;98938.00;;;1.37;80.74
77153;BME280;66124;51.146;17.072;2023-01-19T03:34:57;98934.13;;;1.37;80.76
77153;BME280;66124;51.146;17.072;2023-01-19T03:37:29;98937.73;;;1.35;80.76
77153;BME280;66124;51.146;17.072;2023-01-19T03:40:00;98940.92;;;1.34;81.12
77153;BME280;66124;51.146;17.072;2023-01-19T03:42:29;98944.88;;;1.34;81.18
77153;BME280;66124;51.146;17.072;2023-01-19T03:45:00;98942.34;;;1.36;81.14
77153;BME280;66124;51.146;17.072;2023-01-19T03:47:30;98939.41;;;1.35;81.10
77153;BME280;66124;51.146;17.072;2023-01-19T03:50:03;98936.28;;;1.34;81.26
77153;BME280;66124;51.146;17.072;2023-01-19T03:52:35;98925.10;;;1.25;81.33
77153;BME280;66124;51.146;17.072;2023-01-19T03:55:06;98935.71;;;1.33;81.34
77153;BME280;66124;51.146;17.072;2023-01-19T03:57:36;98943.48;;;1.33;81.22
77153;BME280;66124;51.146;17.072;2023-01-19T04:00:08;98938.19;;;1.34;81.67
77153;BME280;66124;51.146;17.072;2023-01-19T04:02:37;98943.71;;;1.34;81.72
77153;BME280;66124;51.146;17.072;2023-01-19T04:05:08;98945.63;;;1.32;81.86
77153;BME280;66124;51.146;17.072;2023-01-19T04:07:37;98949.02;;;1.31;81.90
77153;BME280;66124;51.146;17.072;2023-01-19T04:10:09;98945.34;;;1.28;82.17
77153;BME280;66124;51.146;17.072;2023-01-19T04:12:38;98953.06;;;1.26;82.17
77153;BME280;66124;51.146;17.072;2023-01-19T04:15:09;98955.66;;;1.22;82.57
77153;BME280;66124;51.146;17.072;2023-01-19T04:17:38;98960.24;;;1.21;82.55
77153;BME280;66124;51.146;17.072;2023-01-19T04:20:10;98964.97;;;1.21;82.91
77153;BME280;66124;51.146;17.072;2023-01-19T04:22:39;98973.27;;;1.19;82.91
77153;BME280;66124;51.146;17.072;2023-01-19T04:25:10;98975.11;;;1.18;82.99
77153;BME280;66124;51.146;17.072;2023-01-19T04:27:39;98975.10;;;1.16;83.20
77153;BME280;66124;51.146;17.072;2023-01-19T04:30:09;98978.38;;;1.13;83.37
77153;BME280;66124;51.146;17.072;2023-01-19T04:37:50;98978.07;;;1.07;83.97
77153;BME280;66124;51.146;17.072;2023-01-19T04:40:20;98986.58;;;1.07;83.87
77153;BME280;66124;51.146;17.072;2023-01-19T04:42:49;98988.80;;;1.07;84.11
77153;BME280;66124;51.146;17.072;2023-01-19T04:45:18;98996.02;;;1.08;84.34
77153;BME280;66124;51.146;17.072;2023-01-19T04:47:48;99004.73;;;1.07;84.02
77153;BME280;66124;51.146;17.072;2023-01-19T04:50:19;99009.48;;;1.06;84.27
77153;BME280;66124;51.146;17.072;2023-01-19T04:52:48;99021.70;;;1.07;84.35
77153;BME280;66124;51.146;17.072;2023-01-19T04:55:18;99028.10;;;1.07;84.40
77153;BME280;66124;51.146;17.072;2023-01-19T04:57:47;99036.35;;;1.08;84.42
77153;BME280;66124;51.146;17.072;2023-01-19T05:00:19;99041.29;;;1.08;84.74
77153;BME280;66124;51.146;17.072;2023-01-19T05:02:48;99052.69;;;1.12;84.67
77153;BME280;66124;51.146;17.072;2023-01-19T05:05:18;99061.15;;;1.16;84.62
77153;BME280;66124;51.146;17.072;2023-01-19T05:07:48;99057.94;;;1.19;84.74
77153;BME280;66124;51.146;17.072;2023-01-19T05:10:17;99060.98;;;1.21;84.58
77153;BME280;66124;51.146;17.072;2023-01-19T05:12:47;99064.25;;;1.21;84.68
77153;BME280;66124;51.146;17.072;2023-01-19T05:15:16;99072.88;;;1.23;84.75
77153;BME280;66124;51.146;17.072;2023-01-19T05:17:46;99074.89;;;1.24;84.71
77153;BME280;66124;51.146;17.072;2023-01-19T05:20:16;99076.88;;;1.23;84.69
77153;BME280;66124;51.146;17.072;2023-01-19T05:22:50;99074.08;;;1.20;84.90
77153;BME280;66124;51.146;17.072;2023-01-19T05:25:19;99065.30;;;1.21;84.74
77153;BME280;66124;51.146;17.072;2023-01-19T05:27:49;99058.36;;;1.20;85.00
77153;BME280;66124;51.146;17.072;2023-01-19T05:30:19;99056.02;;;1.19;85.02
77153;BME280;66124;51.146;17.072;2023-01-19T05:32:48;99055.21;;;1.18;85.04
77153;BME280;66124;51.146;17.072;2023-01-19T05:35:17;99060.48;;;1.18;85.13
77153;BME280;66124;51.146;17.072;2023-01-19T05:37:47;99061.40;;;1.15;85.26
77153;BME280;66124;51.146;17.072;2023-01-19T05:40:17;99055.54;;;1.15;85.31
77153;BME280;66124;51.146;17.072;2023-01-19T05:42:46;99060.63;;;1.14;85.40
77153;BME280;66124;51.146;17.072;2023-01-19T05:45:16;99063.95;;;1.12;85.33
77153;BME280;66124;51.146;17.072;2023-01-19T05:47:45;99062.80;;;1.11;85.23
77153;BME280;66124;51.146;17.072;2023-01-19T05:50:13;99065.61;;;1.11;85.56
77153;BME280;66124;51.146;17.072;2023-01-19T05:57:48;99075.59;;;1.15;85.55
77153;BME280;66124;51.146;17.072;2023-01-19T06:00:18;99074.95;;;1.13;85.58
77153;BME280;66124;51.146;17.072;2023-01-19T06:02:48;99076.02;;;1.13;85.60
77153;BME280;66124;51.146;17.072;2023-01-19T06:05:18;99079.68;;;1.12;85.57
77153;BME280;66124;51.146;17.072;2023-01-19T06:07:47;99088.41;;;1.11;85.39
77153;BME280;66124;51.146;17.072;2023-01-19T06:10:17;99099.95;;;1.10;85.53
77153;BME280;66124;51.146;17.072;2023-01-19T06:12:47;99112.45;;;1.10;85.56
77153;BME280;66124;51.146;17.072;2023-01-19T06:15:17;99117.92;;;1.09;85.69
77153;BME280;66124;51.146;17.072;2023-01-19T06:17:46;99119.30;;;1.07;85.88
77153;BME280;66124;51.146;17.072;2023-01-19T06:20:16;99121.34;;;1.06;85.83
77153;BME280;66124;51.146;17.072;2023-01-19T06:22:45;99121.48;;;1.04;85.84
77153;BME280;66124;51.146;17.072;2023-01-19T06:25:14;99127.19;;;1.03;85.89
77153;BME280;66124;51.146;17.072;2023-01-19T06:27:45;99125.83;;;1.00;86.06
77153;BME280;66124;51.146;17.072;2023-01-19T06:30:15;99131.14;;;0.99;85.74
77153;BME280;66124;51.146;17.072;2023-01-19T06:32:44;99134.12;;;0.99;85.96
77153;BME280;66124;51.146;17.072;2023-01-19T06:35:14;99129.92;;;0.99;86.10
77153;BME280;66124;51.146;17.072;2023-01-19T06:37:43;99140.23;;;1.00;85.89
77153;BME280;66124;51.146;17.072;2023-01-19T06:40:13;99150.90;;;1.00;85.72
77153;BME280;66124;51.146;17.072;2023-01-19T06:42:42;99151.50;;;1.02;85.81
77153;BME280;66124;51.146;17.072;2023-01-19T06:45:12;99154.90;;;1.04;85.83
77153;BME280;66124;51.146;17.072;2023-01-19T06:47:41;99153.86;;;1.04;85.79
77153;BME280;66124;51.146;17.072;2023-01-19T06:50:11;99159.75;;;1.08;85.66
77153;BME280;66124;51.146;17.072;2023-01-19T06:52:41;99161.80;;;1.10;85.68
77153;BME280;66124;51.146;17.072;2023-01-19T06:55:11;99159.51;;;1.10;85.65
77153;BME280;66124;51.146;17.072;2023-01-19T06:57:41;99161.05;;;1.10;85.65
77153;BME280;66124;51.146;17.072;2023-01-19T07:00:12;99161.29;;;1.10;85.52
77153;BME280;66124;51.146;17.072;2023-01-19T07:02:43;99166.23;;;1.10;85.41
77153;BME280;66124;51.146;17.072;2023-01-19T07:05:12;99171.94;;;1.12;85.31
77153;BME280;66124;51.146;17.072;2023-01-19T07:07:41;99170.42;;;1.13;85.55
77153;BME280;66124;51.146;17.072;2023-01-19T07:10:10;99171.80;;;1.15;85.81
77153;BME280;66124;51.146;17.072;2023-01-19T07:17:46;99167.73;;;1.20;85.50
77153;BME280;66124;51.146;17.072;2023-01-19T07:20:17;99167.67;;;1.17;85.45
77153;BME280;66124;51.146;17.072;2023-01-19T07:22:46;99167.87;;;1.15;85.33
77153;BME280;66124;51.146;17.072;2023-01-19T07:25:16;99168.30;;;1.12;85.37
77153;BME280;66124;51.146;17.072;2023-01-19T07:27:45;99169.17;;;1.09;85.26
77153;BME280;66124;51.146;17.072;2023-01-19T07:30:16;99166.81;;;1.06;85.18
77153;BME280;66124;51.146;17.072;2023-01-19T07:32:45;99171.41;;;1.03;85.00
77153;BME280;66124;51.146;17.072;2023-01-19T07:35:14;99168.58;;;1.02;85.11
77153;BME280;66124;51.146;17.072;2023-01-19T07:37:44;99176.64;;;1.01;85.14
77153;BME280;66124;51.146;17.072;2023-01-19T07:40:14;99176.40;;;1.02;85.03
77153;BME280;66124;51.146;17.072;2023-01-19T07:42:47;99178.33;;;1.03;84.95
77153;BME280;66124;51.146;17.072;2023-01-19T07:45:18;99177.20;;;1.04;84.85
77153;BME280;66124;51.146;17.072;2023-01-19T07:47:48;99170.05;;;1.05;84.99
77153;BME280;66124;51.146;17.072;2023-01-19T07:50:19;99170.93;;;1.05;84.96
77153;BME280;66124;51.146;17.072;2023-01-19T07:52:48;99173.45;;;1.05;84.69
77153;BME280;66124;51.146;17.072;2023-01-19T07:55:18;99171.30;;;1.08;84.71
77153;BME280;66124;51.146;17.072;2023-01-19T07:57:50;99167.84;;;1.10;84.71
77153;BME280;66124;51.146;17.072;2023-01-19T08:00:21;99166.91;;;1.12;84.64
77153;BME280;66124;51.146;17.072;2023-01-19T08:02:51;99168.55;;;1.13;84.44
77153;BME280;66124;51.146;17.072;2023-01-19T08:05:21;99170.55;;;1.14;84.47
77153;BME280;66124;51.146;17.072;2023-01-19T08:07:50;99172.91;;;1.15;84.55
77153;BME280;66124;51.146;17.072;2023-01-19T08:10:20;99176.18;;;1.15;84.39
77153;BME280;66124;51.146;17.072;2023-01-19T08:12:49;99181.76;;;1.15;84.53
77153;BME280;66124;51.146;17.072;2023-01-19T08:15:19;99188.17;;;1.19;84.46
77153;BME280;66124;51.146;17.072;2023-01-19T08:17:55;99191.23;;;1.22;84.53
77153;BME280;66124;51.146;17.072;2023-01-19T08:20:25;99191.80;;;1.27;84.35
77153;BME280;66124;51.146;17.072;2023-01-19T08:22:54;99191.44;;;1.33;84.22
77153;BME280;66124;51.146;17.072;2023-01-19T08:25:24;99199.06;;;1.38;84.17
77153;BME280;66124;51.146;17.072;2023-01-19T08:27:53;99198.21;;;1.41;83.86
77153;BME280;66124;51.146;17.072;2023-01-19T08:30:21;99209.17;;;1.43;83.91
77153;BME280;66124;51.146;17.072;2023-01-19T08:37:58;99213.83;;;1.44;83.30
77153;BME280;66124;51.146;17.072;2023-01-19T08:40:27;99220.26;;;1.41;83.33
77153;BME280;66124;51.146;17.072;2023-01-19T08:42:59;99222.66;;;1.37;83.07
77153;BME280;66124;51.146;17.072;2023-01-19T08:45:29;99225.50;;;1.36;82.91
77153;BME280;66124;51.146;17.072;2023-01-19T08:47:59;99227.61;;;1.36;82.67
77153;BME280;66124;51.146;17.072;2023-01-19T08:50:29;99226.46;;;1.36;82.70
77153;BME280;66124;51.146;17.072;2023-01-19T08:53:00;99225.42;;;1.36;82.44
77153;BME280;66124;51.146;17.072;2023-01-19T08:55:30;99224.06;;;1.35;82.23
77153;BME280;66124;51.146;17.072;2023-01-19T08:57:59;99221.05;;;1.34;82.18
77153;BME280;66124;51.146;17.072;2023-01-19T09:00:30;99217.90;;;1.33;82.22
77153;BME280;66124;51.146;17.072;2023-01-19T09:03:00;99220.08;;;1.31;81.90
77153;BME280;66124;51.146;17.072;2023-01-19T09:05:30;99223.70;;;1.30;82.06
77153;BME280;66124;51.146;17.072;2023-01-19T09:07:59;99230.70;;;1.29;81.96
77153;BME280;66124;51.146;17.072;2023-01-19T09:10:29;99235.83;;;1.28;81.75
77153;BME280;66124;51.146;17.072;2023-01-19T09:12:58;99238.08;;;1.28;81.62
77153;BME280;66124;51.146;17.072;2023-01-19T09:15:27;99238.24;;;1.30;81.86
77153;BME280;66124;51.146;17.072;2023-01-19T09:17:57;99243.52;;;1.31;81.70
77153;BME280;66124;51.146;17.072;2023-01-19T09:20:26;99248.06;;;1.30;81.51
77153;BME280;66124;51.146;17.072;2023-01-19T09:22:57;99254.77;;;1.29;81.22
77153;BME280;66124;51.146;17.072;2023-01-19T09:25:27;99256.19;;;1.29;81.21
77153;BME280;66124;51.146;17.072;2023-01-19T09:27:56;99257.21;;;1.29;81.14
77153;BME280;66124;51.146;17.072;2023-01-19T09:30:27;99257.96;;;1.32;81.06
77153;BME280;66124;51.146;17.072;2023-01-19T09:32:59;99258.89;;;1.35;80.61
77153;BME280;66124;51.146;17.072;2023-01-19T09:35:29;99259.44;;;1.40;80.64
77153;BME280;66124;51.146;17.072;2023-01-19T09:37:58;99264.56;;;1.46;80.50
77153;BME280;66124;51.146;17.072;2023-01-19T09:40:29;99260.42;;;1.50;79.97
77153;BME280;66124;51.146;17.072;2023-01-19T09:43:05;99259.24;;;1.53;79.93
77153;BME280;66124;51.146;17.072;2023-01-19T09:45:45;99258.23;;;1.58;79.67
77153;BME280;66124;51.146;17.072;2023-01-19T09:48:25;99259.14;;;1.62;79.29
77153;BME280;66124;51.146;17.072;2023-01-19T09:50:57;99257.60;;;1.63;78.97
77153;BME280;66124;51.146;17.072;2023-01-19T09:57:17;99254.09;;;1.72;78.85
77153;BME280;66124;51.146;17.072;2023-01-19T09:59:47;99250.34;;;1.79;78.67
77153;BME280;66124;51.146;17.072;2023-01-19T10:02:25;99247.92;;;1.86;78.19
77153;BME280;66124;51.146;17.072;2023-01-19T10:05:00;99243.34;;;1.88;77.90
77153;BME280;66124;51.146;17.072;2023-01-19T10:07:37;99235.12;;;1.91;77.78
77153;BME280;66124;51.146;17.072;2023-01-19T10:10:21;99231.16;;;1.96;77.73
77153;BME280;66124;51.146;17.072;2023-01-19T10:13:09;99233.61;;;2.03;77.43
77153;BME280;66124;51.146;17.072;2023-01-19T10:15:54;99232.23;;;2.04;77.32
77153;BME280;66124;51.146;17.072;2023-01-19T10:18:26;99232.30;;;2.05;77.01
77153;BME280;66124;51.146;17.072;2023-01-19T10:21:01;99232.16;;;2.05;76.64
77153;BME280;66124;51.146;17.072;2023-01-19T10:23:42;99228.59;;;2.06;76.73
77153;BME280;66124;51.146;17.072;2023-01-19T10:26:17;99232.52;;;2.06;76.33
77153;BME280;66124;51.146;17.072;2023-01-19T10:28:51;99230.86;;;2.04;76.11
77153;BME280;66124;51.146;17.072;2023-01-19T10:31:23;99236.98;;;2.02;76.02
77153;BME280;66124;51.146;17.072;2023-01-19T10:33:53;99236.34;;;2.01;75.73
77153;BME280;66124;51.146;17.072;2023-01-19T10:36:27;99234.08;;;2.08;75.96
77153;BME280;66124;51.146;17.072;2023-01-19T10:38:58;99233.52;;;2.21;75.71
77153;BME280;66124;51.146;17.072;2023-01-19T10:41:34;99235.17;;;2.32;75.59
77153;BME280;66124;51.146;17.072;2023-01-19T10:44:05;99239.89;;;2.47;75.66
77153;BME280;66124;51.146;17.072;2023-01-19T10:46:41;99242.48;;;2.63;75.54
77153;BME280;66124;51.146;17.072;2023-01-19T10:49:24;99242.48;;;2.78;75.35
77153;BME280;66124;51.146;17.072;2023-01-19T10:51:55;99243.58;;;2.97;74.77
77153;BME280;66124;51.146;17.072;2023-01-19T10:54:26;99244.40;;;3.11;74.64
77153;BME280;66124;51.146;17.072;2023-01-19T10:56:58;99243.45;;;3.23;74.30
77153;BME280;66124;51.146;17.072;2023-01-19T10:59:35;99248.02;;;3.39;73.86
77153;BME280;66124;51.146;17.072;2023-01-19T11:02:16;99246.95;;;3.56;73.42
77153;BME280;66124;51.146;17.072;2023-01-19T11:04:47;99241.30;;;3.77;72.97
77153;BME280;66124;51.146;17.072;2023-01-19T11:07:20;99244.88;;;3.94;72.48
77153;BME280;66124;51.146;17.072;2023-01-19T11:09:48;99238.66;;;4.05;72.36
77153;BME280;66124;51.146;17.072;2023-01-19T11:17:28;99241.41;;;4.71;71.09
77153;BME280;66124;51.146;17.072;2023-01-19T11:20:00;99242.36;;;4.84;70.61
77153;BME280;66124;51.146;17.072;2023-01-19T11:22:31;99236.14;;;5.03;70.20
77153;BME280;66124;51.146;17.072;2023-01-19T11:25:03;99235.10;;;5.23;69.61
77153;BME280;66124;51.146;17.072;2023-01-19T11:27:35;99232.69;;;5.43;69.00
77153;BME280;66124;51.146;17.072;2023-01-19T11:30:14;99228.86;;;5.61;67.98
77153;BME280;66124;51.146;17.072;2023-01-19T11:32:46;99227.39;;;5.81;67.50
77153;BME280;66124;51.146;17.072;2023-01-19T11:35:37;99229.52;;;5.94;66.72
77153;BME280;66124;51.146;17.072;2023-01-19T11:38:17;99229.02;;;6.05;65.97
77153;BME280;66124;51.146;17.072;2023-01-19T11:40:52;99226.77;;;6.07;65.39
77153;BME280;66124;51.146;17.072;2023-01-19T11:43:25;99230.23;;;6.12;65.15
77153;BME280;66124;51.146;17.072;2023-01-19T11:45:57;99228.02;;;6.14;64.95
77153;BME280;66124;51.146;17.072;2023-01-19T11:48:31;99228.04;;;6.29;64.92
77153;BME280;66124;51.146;17.072;2023-01-19T11:51:04;99222.39;;;6.55;64.24
77153;BME280;66124;51.146;17.072;2023-01-19T11:53:44;99220.42;;;6.75;63.74
77153;BME280;66124;51.146;17.072;2023-01-19T11:56:15;99220.02;;;6.87;63.19
77153;BME280;66124;51.146;17.072;2023-01-19T11:58:46;99214.56;;;6.89;62.66
77153;BME280;66124;51.146;17.072;2023-01-19T12:01:19;99211.85;;;7.03;62.62
77153;BME280;66124;51.146;17.072;2023-01-19T12:03:56;99208.08;;;7.18;62.11
77153;BME280;66124;51.146;17.072;2023-01-19T12:06:30;99210.71;;;7.33;62.12
77153;BME280;66124;51.146;17.072;2023-01-19T12:09:04;99200.39;;;7.53;61.55
77153;BME280;66124;51.146;17.072;2023-01-19T12:11:36;99196.75;;;7.68;60.87
77153;BME280;66124;51.146;17.072;2023-01-19T12:14:08;99192.73;;;7.77;60.31
77153;BME280;66124;51.146;17.072;2023-01-19T12:16:43;99194.99;;;7.90;59.96
77153;BME280;66124;51.146;17.072;2023-01-19T12:19:17;99198.10;;;8.07;59.30
77153;BME280;66124;51.146;17.072;2023-01-19T12:21:47;99195.11;;;8.20;58.98
77153;BME280;66124;51.146;17.072;2023-01-19T12:24:21;99187.86;;;8.38;58.44
77153;BME280;66124;51.146;17.072;2023-01-19T12:26:55;99189.86;;;8.64;57.46
77153;BME280;66124;51.146;17.072;2023-01-19T12:29:24;99182.55;;;8.83;56.45
77153;BME280;66124;51.146;17.072;2023-01-19T12:42:28;99181.06;;;9.50;54.02
77153;BME280;66124;51.146;17.072;2023-01-19T12:45:07;99186.48;;;9.59;53.74
77153;BME280;66124;51.146;17.072;2023-01-19T12:47:50;99185.79;;;9.73;53.60
77153;BME280;66124;51.146;17.072;2023-01-19T12:50:22;99188.64;;;9.98;53.42
77153;BME280;66124;51.146;17.072;2023-01-19T12:52:50;99188.52;;;10.23;52.34
77153;BME280;66124;51.146;17.072;2023-01-19T12:55:26;99191.08;;;10.18;51.40
77153;BME280;66124;51.146;17.072;2023-01-19T12:58:01;99192.64;;;10.10;51.33
77153;BME280;66124;51.146;17.072;2023-01-19T13:00:34;99192.98;;;10.16;51.07
77153;BME280;66124;51.146;17.072;2023-01-19T13:05:51;99195.16;;;10.60;50.58
77153;BME280;66124;51.146;17.072;2023-01-19T13:08:23;99193.86;;;10.91;50.24
77153;BME280;66124;51.146;17.072;2023-01-19T13:11:19;99191.81;;;11.25;49.92
77153;BME280;66124;51.146;17.072;2023-01-19T13:17:04;99202.80;;;11.65;48.81
77153;BME280;66124;51.146;17.072;2023-01-19T13:19:46;99202.89;;;11.63;48.17
77153;BME280;66124;51.146;17.072;2023-01-19T13:25:33;99199.80;;;11.12;47.55
77153;BME280;66124;51.146;17.072;2023-01-19T13:28:08;99199.92;;;10.97;47.77
77153;BME280;66124;51.146;17.072;2023-01-19T13:30:50;99205.10;;;10.90;47.18
77153;BME280;66124;51.146;17.072;2023-01-19T13:33:23;99210.95;;;10.86;47.65
77153;BME280;66124;51.146;17.072;2023-01-19T13:35:55;99210.83;;;10.90;47.50
77153;BME280;66124;51.146;17.072;2023-01-19T13:38:27;99214.67;;;10.92;46.57
77153;BME280;66124;51.146;17.072;2023-01-19T13:40:59;99216.45;;;10.66;45.52
77153;BME280;66124;51.146;17.072;2023-01-19T13:43:31;99216.88;;;10.22;45.50
77153;BME280;66124;51.146;17.072;2023-01-19T13:46:03;99217.80;;;9.79;46.37
77153;BME280;66124;51.146;17.072;2023-01-19T13:48:33;99219.85;;;9.38;46.69
77153;BME280;66124;51.146;17.072;2023-01-19T13:51:05;99225.85;;;8.88;47.09
77153;BME280;66124;51.146;17.072;2023-01-19T13:53:33;99232.48;;;8.44;47.78
77153;BME280;66124;51.146;17.072;2023-01-19T14:01:50;99234.05;;;7.53;49.27
77153;BME280;66124;51.146;17.072;2023-01-19T14:04:28;99232.13;;;7.14;49.55
77153;BME280;66124;51.146;17.072;2023-01-19T14:07:01;99234.10;;;6.72;50.41
77153;BME280;66124;51.146;17.072;2023-01-19T14:09:31;99237.78;;;6.39;50.71
77153;BME280;66124;51.146;17.072;2023-01-19T14:12:11;99235.01;;;6.13;51.37
77153;BME280;66124;51.146;17.072;2023-01-19T14:14:41;99236.99;;;5.91;51.81
77153;BME280;66124;51.146;17.072;2023-01-19T14:17:26;99239.18;;;5.77;52.15
77153;BME280;66124;51.146;17.072;2023-01-19T14:19:57;99242.22;;;5.59;52.60
77153;BME280;66124;51.146;17.072;2023-01-19T14:22:41;99242.17;;;5.36;52.84
77153;BME280;66124;51.146;17.072;2023-01-19T14:25:29;99242.42;;;5.12;53.29
77153;BME280;66124;51.146;17.072;2023-01-19T14:28:33;99244.38;;;4.93;54.08
77153;BME280;66124;51.146;17.072;2023-01-19T14:31:18;99245.02;;;4.68;54.32